createdAt,value
2023-02-21T00:02:03.230Z,8.90
2023-02-21T00:04:49.564Z,8.90
2023-02-21T00:07:35.190Z,9.00
2023-02-21T00:10:20.642Z,9.00
2023-02-21T00:13:06.657Z,9.00
2023-02-21T00:15:52.242Z,8.90
2023-02-21T00:18:38.101Z,8.90
2023-02-21T00:21:23.781Z,8.90
2023-02-21T00:24:09.294Z,9.00
2023-02-21T00:26:55.342Z,8.90
2023-02-21T00:29:40.980Z,8.90
2023-02-21T00:32:26.806Z,8.90
2023-02-21T00:35:11.915Z,8.90
2023-02-21T00:37:57.393Z,9.00
2023-02-21T00:40:42.694Z,8.90
2023-02-21T00:43:27.964Z,9.00
2023-02-21T00:46:14.154Z,9.00
2023-02-21T00:48:59.746Z,9.00
2023-02-21T00:51:45.174Z,9.00
2023-02-21T00:54:30.409Z,9.00
2023-02-21T00:57:15.548Z,9.00
2023-02-21T01:00:00.878Z,9.00
2023-02-21T01:02:46.074Z,8.90
2023-02-21T01:05:31.396Z,8.90
2023-02-21T01:08:17.086Z,9.00
2023-02-21T01:11:02.370Z,8.90
2023-02-21T01:13:47.882Z,8.90
2023-02-21T01:16:33.247Z,8.90
2023-02-21T01:19:18.588Z,8.90
2023-02-21T01:22:04.055Z,8.90
2023-02-21T01:24:49.310Z,8.80
2023-02-21T01:27:34.839Z,8.80
2023-02-21T01:30:20.196Z,8.90
2023-02-21T01:33:05.449Z,8.90
2023-02-21T01:35:50.564Z,8.90
2023-02-21T01:38:35.860Z,8.90
2023-02-21T01:41:21.541Z,8.90
2023-02-21T01:44:23.597Z,8.90
2023-02-21T01:47:09.017Z,8.90
2023-02-21T01:49:58.067Z,8.90
2023-02-21T01:52:44.506Z,9.00
2023-02-21T01:55:30.809Z,8.90
2023-02-21T01:58:16.566Z,9.00
2023-02-21T02:01:02.980Z,9.00
2023-02-21T02:03:49.942Z,9.00
2023-02-21T02:06:38.902Z,9.00
2023-02-21T02:09:40.717Z,9.00
2023-02-21T02:12:25.422Z,9.00
2023-02-21T02:15:13.535Z,9.00
2023-02-21T02:18:21.836Z,9.00
2023-02-21T02:21:25.991Z,9.00
2023-02-21T02:24:30.619Z,9.00
2023-02-21T02:26:57.698Z,9.00
2023-02-21T02:30:01.640Z,9.10
2023-02-21T02:32:56.015Z,9.00
2023-02-21T02:35:34.967Z,9.10
2023-02-21T02:38:23.333Z,9.10
2023-02-21T02:41:27.248Z,9.10
2023-02-21T02:44:27.350Z,9.10
2023-02-21T02:46:58.922Z,9.10
2023-02-21T02:49:29.358Z,9.10
2023-02-21T02:52:03.850Z,9.10
2023-02-21T02:54:30.893Z,9.00
2023-02-21T02:56:58.697Z,9.00
2023-02-21T02:59:30.086Z,9.00
2023-02-21T03:02:06.141Z,9.10
2023-02-21T03:04:47.103Z,9.10
2023-02-21T03:07:20.058Z,9.00
2023-02-21T03:10:01.518Z,9.00
2023-02-21T03:13:04.815Z,9.10
2023-02-21T03:15:41.017Z,9.10
2023-02-21T03:18:12.897Z,9.00
2023-02-21T03:20:41.974Z,9.10
2023-02-21T03:23:11.789Z,9.10
2023-02-21T03:25:40.206Z,9.10
2023-02-21T03:28:07.104Z,9.00
2023-02-21T03:30:34.893Z,9.10
2023-02-21T03:33:03.264Z,9.10
2023-02-21T03:35:30.534Z,9.10
2023-02-21T03:37:58.654Z,9.00
2023-02-21T03:40:31.275Z,9.10
2023-02-21T03:42:59.712Z,9.10
2023-02-21T03:45:26.679Z,9.10
2023-02-21T03:47:53.682Z,9.10
2023-02-21T03:50:20.501Z,9.10
2023-02-21T03:52:47.662Z,9.10
2023-02-21T03:55:14.543Z,9.10
2023-02-21T03:57:41.422Z,9.10
2023-02-21T04:00:09.602Z,9.10
2023-02-21T04:02:36.539Z,9.10
2023-02-21T04:05:06.491Z,9.10
2023-02-21T04:07:33.294Z,9.00
2023-02-21T04:10:00.135Z,9.10
2023-02-21T04:12:26.995Z,9.10
2023-02-21T04:14:56.859Z,9.10
2023-02-21T04:17:23.742Z,9.10
2023-02-21T04:19:50.981Z,9.10
2023-02-21T04:22:18.524Z,9.10
2023-02-21T04:24:45.524Z,9.10
2023-02-21T04:27:12.459Z,9.10
2023-02-21T04:29:39.338Z,9.10
2023-02-21T04:32:06.326Z,9.00
2023-02-21T04:34:33.279Z,9.00
2023-02-21T04:37:00.174Z,9.00
2023-02-21T04:39:27.004Z,9.00
2023-02-21T04:41:53.874Z,9.00
2023-02-21T04:44:20.671Z,9.00
2023-02-21T04:46:47.617Z,9.00
2023-02-21T04:49:14.818Z,9.00
2023-02-21T04:51:42.040Z,9.00
2023-02-21T04:54:09.161Z,9.00
2023-02-21T04:56:37.703Z,8.90
2023-02-21T04:59:04.676Z,8.90
2023-02-21T05:01:32.244Z,9.00
2023-02-21T05:04:02.414Z,9.00
2023-02-21T05:06:31.696Z,8.90
2023-02-21T05:08:59.607Z,8.90
2023-02-21T05:11:27.376Z,8.90
2023-02-21T05:13:54.556Z,9.00
2023-02-21T05:16:21.497Z,9.00
2023-02-21T05:18:49.232Z,9.00
2023-02-21T05:21:17.953Z,9.00
2023-02-21T05:23:55.908Z,9.00
2023-02-21T05:26:26.746Z,9.00
2023-02-21T05:28:54.553Z,9.00
2023-02-21T05:31:21.757Z,9.00
2023-02-21T05:33:48.804Z,9.00
2023-02-21T05:36:15.939Z,9.00
2023-02-21T05:38:51.286Z,9.00
2023-02-21T05:41:19.207Z,9.10
2023-02-21T05:43:47.674Z,9.00
2023-02-21T05:46:46.194Z,9.10
2023-02-21T05:49:13.273Z,9.10
2023-02-21T05:51:43.393Z,9.10
2023-02-21T05:54:19.674Z,9.10
2023-02-21T05:56:48.313Z,9.10
2023-02-21T05:59:17.275Z,9.10
2023-02-21T06:01:44.239Z,9.10
2023-02-21T06:04:11.350Z,9.10
2023-02-21T06:06:38.652Z,9.10
2023-02-21T06:09:06.574Z,9.10
2023-02-21T06:11:37.073Z,9.10
2023-02-21T06:14:06.177Z,9.10
2023-02-21T06:16:35.263Z,9.10
2023-02-21T06:19:02.753Z,9.10
2023-02-21T06:21:29.713Z,9.00
2023-02-21T06:23:57.138Z,9.10
2023-02-21T06:26:24.066Z,9.00
2023-02-21T06:28:51.418Z,9.10
2023-02-21T06:31:19.741Z,9.10
2023-02-21T06:33:48.000Z,9.10
2023-02-21T06:36:21.241Z,9.10
2023-02-21T06:38:51.514Z,9.10
2023-02-21T06:41:20.706Z,9.10
2023-02-21T06:43:47.515Z,9.10
2023-02-21T06:46:19.739Z,9.10
2023-02-21T06:48:46.762Z,9.10
2023-02-21T06:51:14.844Z,9.10
2023-02-21T06:53:45.240Z,9.10
2023-02-21T06:56:12.551Z,9.10
2023-02-21T06:58:39.372Z,9.10
2023-02-21T07:01:06.159Z,9.10
2023-02-21T07:03:33.010Z,9.10
2023-02-21T07:06:00.047Z,9.10
2023-02-21T07:08:27.333Z,9.10
2023-02-21T07:10:54.282Z,9.10
2023-02-21T07:13:22.659Z,9.10
2023-02-21T07:15:49.603Z,9.10
2023-02-21T07:18:16.642Z,9.10
2023-02-21T07:20:43.623Z,9.10
2023-02-21T07:23:10.639Z,9.10
2023-02-21T07:25:37.567Z,9.10
2023-02-21T07:28:04.595Z,9.10
2023-02-21T07:30:31.935Z,9.10
2023-02-21T07:32:59.245Z,9.10
2023-02-21T07:35:26.451Z,9.10
2023-02-21T07:37:53.335Z,9.10
2023-02-21T07:40:20.446Z,9.10
2023-02-21T07:42:48.240Z,9.10
2023-02-21T07:45:16.542Z,9.10
2023-02-21T07:47:47.889Z,9.10
2023-02-21T07:50:16.273Z,9.20
2023-02-21T07:52:43.621Z,9.20
2023-02-21T07:55:12.489Z,9.20
2023-02-21T07:57:39.513Z,9.20
2023-02-21T08:00:06.922Z,9.20
2023-02-21T08:02:33.699Z,9.20
2023-02-21T08:05:00.641Z,9.20
2023-02-21T08:07:27.588Z,9.30
2023-02-21T08:09:55.005Z,9.30
2023-02-21T08:12:21.885Z,9.20
2023-02-21T08:14:48.743Z,9.20
2023-02-21T08:17:15.622Z,9.20
2023-02-21T08:19:42.516Z,9.30
2023-02-21T08:22:09.503Z,9.30
2023-02-21T08:24:36.314Z,9.30
2023-02-21T08:27:03.892Z,9.30
2023-02-21T08:29:30.732Z,9.30
2023-02-21T08:31:57.598Z,9.30
2023-02-21T08:34:24.995Z,9.30
2023-02-21T08:36:51.862Z,9.30
2023-02-21T08:39:18.820Z,9.30
2023-02-21T08:41:51.199Z,9.30
2023-02-21T08:44:21.871Z,9.30
2023-02-21T08:46:49.906Z,9.30
2023-02-21T08:49:17.419Z,9.30
2023-02-21T08:51:44.312Z,9.40
2023-02-21T08:54:11.260Z,9.40
2023-02-21T08:56:38.306Z,9.40
2023-02-21T08:59:05.815Z,9.40
2023-02-21T09:01:35.516Z,9.40
2023-02-21T09:04:04.569Z,9.40
2023-02-21T09:06:32.039Z,9.40
2023-02-21T09:08:58.854Z,9.50
2023-02-21T09:11:25.734Z,9.40
2023-02-21T09:13:55.338Z,9.40
2023-02-21T09:16:22.749Z,9.40
2023-02-21T09:19:01.391Z,9.40
2023-02-21T09:21:29.065Z,9.40
2023-02-21T09:23:59.262Z,9.40
2023-02-21T09:26:26.822Z,9.40
2023-02-21T09:28:53.892Z,9.40
2023-02-21T09:31:21.017Z,9.40
2023-02-21T09:33:48.210Z,9.40
2023-02-21T09:36:15.156Z,9.40
2023-02-21T09:38:42.159Z,9.50
2023-02-21T09:41:12.460Z,9.50
2023-02-21T09:43:54.141Z,9.50
2023-02-21T09:46:43.825Z,9.50
2023-02-21T09:49:18.372Z,9.50
2023-02-21T09:51:45.337Z,9.60
2023-02-21T09:54:29.999Z,9.60
2023-02-21T09:57:00.095Z,9.60
2023-02-21T09:59:27.613Z,9.60
2023-02-21T10:02:09.504Z,9.60
2023-02-21T10:05:14.628Z,9.60
2023-02-21T10:07:59.026Z,9.60
2023-02-21T10:10:47.519Z,9.60
2023-02-21T10:13:32.479Z,9.70
2023-02-21T10:16:07.174Z,9.70
2023-02-21T10:18:59.443Z,9.70
2023-02-21T10:21:37.144Z,9.70
2023-02-21T10:24:15.800Z,9.80
2023-02-21T10:26:48.528Z,9.80
2023-02-21T10:29:30.402Z,9.90
2023-02-21T10:32:03.420Z,9.90
2023-02-21T10:34:33.400Z,9.90
2023-02-21T10:37:18.861Z,9.90
2023-02-21T10:39:51.167Z,9.90
2023-02-21T10:42:41.294Z,10.00
2023-02-21T10:45:10.836Z,10.00
2023-02-21T10:48:03.034Z,10.10
2023-02-21T10:50:49.289Z,10.00
2023-02-21T10:53:26.786Z,10.00
2023-02-21T10:56:15.672Z,10.10
2023-02-21T10:59:06.145Z,10.10
2023-02-21T11:01:35.807Z,10.10
2023-02-21T11:04:23.928Z,10.20
2023-02-21T11:06:55.777Z,10.20
2023-02-21T11:09:41.093Z,10.20
2023-02-21T11:12:20.021Z,10.20
2023-02-21T11:14:52.940Z,10.20
2023-02-21T11:17:23.549Z,10.20
2023-02-21T11:19:57.966Z,10.20
2023-02-21T11:22:38.097Z,10.20
2023-02-21T11:25:20.205Z,10.20
2023-02-21T11:28:01.266Z,10.20
2023-02-21T11:30:28.948Z,10.20
2023-02-21T11:32:58.620Z,10.10
2023-02-21T11:35:27.479Z,10.20
2023-02-21T11:38:00.508Z,10.20
2023-02-21T11:40:40.758Z,10.20
2023-02-21T11:43:31.102Z,10.20
2023-02-21T11:46:07.689Z,10.20
2023-02-21T11:48:59.503Z,10.20
2023-02-21T11:51:36.158Z,10.20
2023-02-21T11:54:05.107Z,10.20
2023-02-21T11:56:53.332Z,10.20
2023-02-21T11:59:59.210Z,10.10
2023-02-21T12:02:50.581Z,10.10
2023-02-21T12:05:49.467Z,10.10
2023-02-21T12:08:25.154Z,10.10
2023-02-21T12:11:22.325Z,10.10
2023-02-21T12:14:10.438Z,10.10
2023-02-21T12:16:51.736Z,10.10
2023-02-21T12:19:39.655Z,10.10
2023-02-21T12:22:06.449Z,10.10
2023-02-21T12:24:39.593Z,10.10
2023-02-21T12:27:28.338Z,10.10
2023-02-21T12:30:01.159Z,10.10
2023-02-21T12:32:48.409Z,10.10
2023-02-21T12:35:44.153Z,10.10
2023-02-21T12:38:14.121Z,10.10
2023-02-21T12:41:16.432Z,10.10
2023-02-21T12:44:20.054Z,10.10
2023-02-21T12:46:57.477Z,10.10
2023-02-21T12:49:32.322Z,10.10
2023-02-21T12:52:15.342Z,10.10
2023-02-21T12:55:01.645Z,10.10
2023-02-21T12:57:46.660Z,10.10
2023-02-21T13:00:38.039Z,10.10
2023-02-21T13:03:30.334Z,10.10
2023-02-21T13:06:24.040Z,10.10
2023-02-21T13:09:21.379Z,10.10
2023-02-21T13:12:06.321Z,10.10
2023-02-21T13:14:58.777Z,10.10
2023-02-21T13:17:26.538Z,10.10
2023-02-21T13:20:06.445Z,10.10
2023-02-21T13:23:10.928Z,10.10
2023-02-21T13:25:56.498Z,10.10
2023-02-21T13:28:28.181Z,10.20
2023-02-21T13:31:04.330Z,10.20
2023-02-21T13:33:44.543Z,10.20
2023-02-21T13:36:20.545Z,10.20
2023-02-21T13:38:58.582Z,10.20
2023-02-21T13:41:33.424Z,10.20
2023-02-21T13:44:05.094Z,10.30
2023-02-21T13:46:31.897Z,10.30
2023-02-21T13:49:36.454Z,10.30
2023-02-21T13:52:24.515Z,10.30
2023-02-21T13:55:10.241Z,10.30
2023-02-21T13:57:49.240Z,10.30
2023-02-21T14:00:24.756Z,10.30
2023-02-21T14:03:18.229Z,10.30
2023-02-21T14:05:45.121Z,10.30
2023-02-21T14:08:25.924Z,10.30
2023-02-21T14:11:14.869Z,10.30
2023-02-21T14:14:00.848Z,10.30
2023-02-21T14:16:51.921Z,10.30
2023-02-21T14:19:42.099Z,10.20
2023-02-21T14:22:20.219Z,10.20
2023-02-21T14:24:50.668Z,10.20
2023-02-21T14:27:17.404Z,10.10
2023-02-21T14:30:13.160Z,10.10
2023-02-21T14:32:52.131Z,10.10
2023-02-21T14:35:46.777Z,10.10
2023-02-21T14:38:24.152Z,10.00
2023-02-21T14:41:09.318Z,10.00
2023-02-21T14:44:14.303Z,10.00
2023-02-21T14:47:06.849Z,9.90
2023-02-21T14:49:46.889Z,9.90
2023-02-21T14:52:29.036Z,9.90
2023-02-21T14:55:35.006Z,9.90
2023-02-21T14:58:02.031Z,10.00
2023-02-21T15:01:00.325Z,10.00
2023-02-21T15:03:35.907Z,9.90
2023-02-21T15:06:12.557Z,9.90
2023-02-21T15:08:43.166Z,9.90
2023-02-21T15:11:26.096Z,9.80
2023-02-21T15:14:22.606Z,9.80
2023-02-21T15:17:02.387Z,9.80
2023-02-21T15:19:35.637Z,9.80
2023-02-21T15:22:20.272Z,9.80
2023-02-21T15:25:08.704Z,9.70
2023-02-21T15:27:36.212Z,9.80
2023-02-21T15:30:13.566Z,9.70
2023-02-21T15:32:40.567Z,9.70
2023-02-21T15:35:13.684Z,9.70
2023-02-21T15:37:43.660Z,9.70
2023-02-21T15:40:25.921Z,9.70
2023-02-21T15:42:54.829Z,9.70
2023-02-21T15:45:30.727Z,9.70
2023-02-21T15:48:00.047Z,9.60
2023-02-21T15:50:42.536Z,9.60
2023-02-21T15:53:14.940Z,9.70
2023-02-21T15:55:42.172Z,9.60
2023-02-21T15:58:14.481Z,9.60
2023-02-21T16:00:47.372Z,9.60
2023-02-21T16:03:39.163Z,9.60
2023-02-21T16:06:25.298Z,9.60
2023-02-21T16:08:59.067Z,9.70
2023-02-21T16:11:45.573Z,9.70
2023-02-21T16:14:27.154Z,9.70
2023-02-21T16:16:59.351Z,9.60
2023-02-21T16:19:32.229Z,9.70
2023-02-21T16:22:38.756Z,9.60
2023-02-21T16:25:24.648Z,9.60
2023-02-21T16:27:57.845Z,9.60
2023-02-21T16:30:31.973Z,9.60
2023-02-21T16:33:05.014Z,9.50
2023-02-21T16:35:32.963Z,9.50
2023-02-21T16:38:01.085Z,9.50
2023-02-21T16:40:30.769Z,9.40
2023-02-21T16:42:58.939Z,9.40
2023-02-21T16:45:25.935Z,9.40
2023-02-21T16:48:01.933Z,9.30
2023-02-21T16:50:40.005Z,9.20
2023-02-21T16:53:08.021Z,9.20
2023-02-21T16:55:35.037Z,9.20
2023-02-21T16:58:17.783Z,9.20
2023-02-21T17:00:45.364Z,9.20
2023-02-21T17:03:12.263Z,9.20
2023-02-21T17:05:39.783Z,9.20
2023-02-21T17:08:07.007Z,9.10
2023-02-21T17:10:33.830Z,9.10
2023-02-21T17:13:03.392Z,9.10
2023-02-21T17:15:32.235Z,9.10
2023-02-21T17:18:02.695Z,9.00
2023-02-21T17:20:30.228Z,9.10
2023-02-21T17:22:58.560Z,9.10
2023-02-21T17:25:25.730Z,9.00
2023-02-21T17:27:52.545Z,9.00
2023-02-21T17:30:23.473Z,9.00
2023-02-21T17:32:50.816Z,9.00
2023-02-21T17:35:19.442Z,9.00
2023-02-21T17:37:50.112Z,9.00
2023-02-21T17:40:19.412Z,9.00
2023-02-21T17:42:46.732Z,9.00
2023-02-21T17:45:17.467Z,8.90
2023-02-21T17:47:44.480Z,8.90
2023-02-21T17:50:11.541Z,8.90
2023-02-21T17:52:39.320Z,8.90
2023-02-21T17:55:09.392Z,8.90
2023-02-21T17:57:40.944Z,8.90
2023-02-21T18:00:21.489Z,8.90
2023-02-21T18:02:49.188Z,8.90
2023-02-21T18:05:18.357Z,8.90
2023-02-21T18:07:53.505Z,8.90
2023-02-21T18:10:26.618Z,8.90
2023-02-21T18:12:56.278Z,8.90
2023-02-21T18:15:27.684Z,8.90
2023-02-21T18:17:54.801Z,8.90
2023-02-21T18:20:22.071Z,8.90
2023-02-21T18:22:50.250Z,8.90
2023-02-21T18:25:20.409Z,8.90
2023-02-21T18:27:47.310Z,8.90
2023-02-21T18:30:14.548Z,8.90
2023-02-21T18:32:41.673Z,8.80
2023-02-21T18:35:11.599Z,8.90
2023-02-21T18:37:38.760Z,8.90
2023-02-21T18:40:06.814Z,8.90
2023-02-21T18:42:36.667Z,8.90
2023-02-21T18:45:03.804Z,8.90
2023-02-21T18:47:34.478Z,8.90
2023-02-21T18:50:02.234Z,8.90
2023-02-21T18:52:32.910Z,8.80
2023-02-21T18:55:04.471Z,8.80
2023-02-21T18:57:31.997Z,8.90
2023-02-21T19:00:01.246Z,8.80
2023-02-21T19:02:29.792Z,8.90
2023-02-21T19:04:58.230Z,8.80
2023-02-21T19:07:26.540Z,8.80
2023-02-21T19:09:55.879Z,8.80
2023-02-21T19:12:25.407Z,8.80
2023-02-21T19:14:55.855Z,8.80
2023-02-21T19:17:23.263Z,8.70
2023-02-21T19:19:51.619Z,8.70
2023-02-21T19:22:20.213Z,8.70
2023-02-21T19:24:47.342Z,8.70
2023-02-21T19:27:15.672Z,8.70
2023-02-21T19:29:44.302Z,8.70
2023-02-21T19:32:12.052Z,8.70
2023-02-21T19:34:40.709Z,8.70
2023-02-21T19:37:09.914Z,8.70
2023-02-21T19:39:39.005Z,8.60
2023-02-21T19:42:07.523Z,8.70
2023-02-21T19:44:38.167Z,8.60
2023-02-21T19:47:05.093Z,8.70
2023-02-21T19:49:31.916Z,8.60
2023-02-21T19:51:59.542Z,8.70
2023-02-21T19:54:31.168Z,8.60
2023-02-21T19:57:00.356Z,8.60
2023-02-21T19:59:32.671Z,8.60
2023-02-21T20:02:00.728Z,8.60
2023-02-21T20:04:28.850Z,8.60
2023-02-21T20:06:59.454Z,8.60
2023-02-21T20:09:26.669Z,8.60
2023-02-21T20:11:57.557Z,8.60
2023-02-21T20:14:24.338Z,8.60
2023-02-21T20:16:53.682Z,8.60
2023-02-21T20:19:20.964Z,8.60
2023-02-21T20:21:48.216Z,8.70
2023-02-21T20:24:14.996Z,8.60
2023-02-21T20:26:41.948Z,8.60
2023-02-21T20:29:08.740Z,8.70
2023-02-21T20:31:37.644Z,8.60
2023-02-21T20:34:06.909Z,8.60
2023-02-21T20:36:38.219Z,8.60
2023-02-21T20:39:06.702Z,8.60
2023-02-21T20:41:40.286Z,8.70
2023-02-21T20:44:07.299Z,8.60
2023-02-21T20:46:35.000Z,8.60
2023-02-21T20:49:03.242Z,8.60
2023-02-21T20:51:33.059Z,8.60
2023-02-21T20:54:01.101Z,8.60
2023-02-21T20:56:39.464Z,8.60
2023-02-21T20:59:09.959Z,8.60
2023-02-21T21:01:36.840Z,8.50
2023-02-21T21:04:05.307Z,8.50
2023-02-21T21:06:32.243Z,8.50
2023-02-21T21:08:59.116Z,8.50
2023-02-21T21:11:25.922Z,8.50
2023-02-21T21:13:52.805Z,8.50
2023-02-21T21:16:21.212Z,8.50
2023-02-21T21:18:48.162Z,8.50
2023-02-21T21:21:15.332Z,8.50
2023-02-21T21:23:42.317Z,8.50
2023-02-21T21:26:09.508Z,8.50
2023-02-21T21:28:36.668Z,8.40
2023-02-21T21:31:04.297Z,8.40
2023-02-21T21:33:31.300Z,8.40
2023-02-21T21:36:00.726Z,8.40
2023-02-21T21:38:29.252Z,8.40
2023-02-21T21:40:57.189Z,8.40
2023-02-21T21:43:25.061Z,8.40
2023-02-21T21:45:51.948Z,8.40
2023-02-21T21:48:19.658Z,8.40
2023-02-21T21:50:46.616Z,8.40
2023-02-21T21:53:14.225Z,8.40
2023-02-21T21:55:40.990Z,8.30
2023-02-21T21:58:14.009Z,8.30
2023-02-21T22:00:46.173Z,8.30
2023-02-21T22:03:18.361Z,8.30
2023-02-21T22:05:49.196Z,8.30
2023-02-21T22:08:18.544Z,8.30
2023-02-21T22:10:46.136Z,8.30
2023-02-21T22:13:20.682Z,8.30
2023-02-21T22:15:48.321Z,8.30
2023-02-21T22:18:19.908Z,8.30
2023-02-21T22:20:50.363Z,8.30
2023-02-21T22:23:21.241Z,8.30
2023-02-21T22:25:48.907Z,8.30
2023-02-21T22:28:16.236Z,8.20
2023-02-21T22:30:43.038Z,8.20
2023-02-21T22:33:13.657Z,8.20
2023-02-21T22:35:41.529Z,8.20
2023-02-21T22:38:14.239Z,8.20
2023-02-21T22:40:42.101Z,8.20
2023-02-21T22:43:09.248Z,8.10
2023-02-21T22:45:37.313Z,8.10
2023-02-21T22:48:06.961Z,8.10
2023-02-21T22:50:37.018Z,8.10
2023-02-21T22:53:09.768Z,8.00
2023-02-21T22:55:37.730Z,8.00
2023-02-21T22:58:09.255Z,8.00
2023-02-21T23:00:36.550Z,7.90
2023-02-21T23:03:15.731Z,7.90
2023-02-21T23:05:44.749Z,7.90
2023-02-21T23:08:13.571Z,7.90
2023-02-21T23:10:40.791Z,7.90
2023-02-21T23:13:16.883Z,7.90
2023-02-21T23:15:44.835Z,7.90
2023-02-21T23:18:20.467Z,7.90
2023-02-21T23:20:52.561Z,7.90
2023-02-21T23:23:27.185Z,7.90
2023-02-21T23:25:58.742Z,7.90
2023-02-21T23:28:28.746Z,7.90
2023-02-21T23:30:57.956Z,7.90
2023-02-21T23:33:27.616Z,7.80
2023-02-21T23:35:56.422Z,7.80
2023-02-21T23:38:28.096Z,7.80
2023-02-21T23:40:58.847Z,7.80
2023-02-21T23:43:30.799Z,7.80
2023-02-21T23:45:58.900Z,7.70
2023-02-21T23:48:26.138Z,7.70
2023-02-21T23:50:57.615Z,7.70
2023-02-21T23:53:26.586Z,7.70
2023-02-21T23:56:00.460Z,7.60
2023-02-21T23:58:31.524Z,7.60
